sensor_id;sensor_type;location;lat;lon;timestamp;P1;durP1;ratioP1;P2;durP2;ratioP2
75937;SDS011;64615;32.062;34.834;2023-02-15T00:01:14;12.75;;;7.53;;
75937;SDS011;64615;32.062;34.834;2023-02-15T00:03:40;12.05;;;7.40;;
75937;SDS011;64615;32.062;34.834;2023-02-15T00:06:05;12.93;;;7.45;;
75937;SDS011;64615;32.062;34.834;2023-02-15T00:08:31;11.57;;;7.35;;
75937;SDS011;64615;32.062;34.834;2023-02-15T00:11:10;10.77;;;6.70;;
75937;SDS011;64615;32.062;34.834;2023-02-15T00:13:37;14.18;;;7.40;;
75937;SDS011;64615;32.062;34.834;2023-02-15T00:16:08;12.35;;;6.80;;
75937;SDS011;64615;32.062;34.834;2023-02-15T00:18:38;12.90;;;7.50;;
75937;SDS011;64615;32.062;34.834;2023-02-15T00:21:05;9.57;;;6.75;;
75937;SDS011;64615;32.062;34.834;2023-02-15T00:23:32;12.45;;;6.85;;
75937;SDS011;64615;32.062;34.834;2023-02-15T00:26:11;11.80;;;6.75;;
75937;SDS011;64615;32.062;34.834;2023-02-15T00:28:38;12.60;;;6.85;;
75937;SDS011;64615;32.062;34.834;2023-02-15T00:31:04;11.00;;;6.75;;
75937;SDS011;64615;32.062;34.834;2023-02-15T00:33:31;11.60;;;6.53;;
75937;SDS011;64615;32.062;34.834;2023-02-15T00:35:57;10.32;;;6.30;;
75937;SDS011;64615;32.062;34.834;2023-02-15T00:38:26;9.35;;;6.00;;
75937;SDS011;64615;32.062;34.834;2023-02-15T00:40:53;11.85;;;6.25;;
75937;SDS011;64615;32.062;34.834;2023-02-15T00:43:22;13.70;;;6.25;;
75937;SDS011;64615;32.062;34.834;2023-02-15T00:45:48;14.05;;;7.05;;
75937;SDS011;64615;32.062;34.834;2023-02-15T00:48:14;14.88;;;6.55;;
75937;SDS011;64615;32.062;34.834;2023-02-15T00:50:40;12.68;;;7.05;;
75937;SDS011;64615;32.062;34.834;2023-02-15T00:53:06;11.73;;;6.90;;
75937;SDS011;64615;32.062;34.834;2023-02-15T00:55:32;13.07;;;6.78;;
75937;SDS011;64615;32.062;34.834;2023-02-15T00:57:58;14.07;;;6.75;;
75937;SDS011;64615;32.062;34.834;2023-02-15T01:00:24;11.40;;;6.53;;
75937;SDS011;64615;32.062;34.834;2023-02-15T01:02:49;15.20;;;7.38;;
75937;SDS011;64615;32.062;34.834;2023-02-15T01:05:15;12.90;;;6.60;;
75937;SDS011;64615;32.062;34.834;2023-02-15T01:07:44;11.38;;;6.85;;
75937;SDS011;64615;32.062;34.834;2023-02-15T01:10:09;11.75;;;6.28;;
75937;SDS011;64615;32.062;34.834;2023-02-15T01:12:35;11.18;;;6.72;;
75937;SDS011;64615;32.062;34.834;2023-02-15T01:15:00;11.07;;;6.50;;
75937;SDS011;64615;32.062;34.834;2023-02-15T01:17:26;13.40;;;6.43;;
75937;SDS011;64615;32.062;34.834;2023-02-15T01:19:52;11.98;;;6.80;;
75937;SDS011;64615;32.062;34.834;2023-02-15T01:22:18;11.75;;;6.63;;
75937;SDS011;64615;32.062;34.834;2023-02-15T01:24:44;13.18;;;6.97;;
75937;SDS011;64615;32.062;34.834;2023-02-15T01:27:10;10.73;;;6.03;;
75937;SDS011;64615;32.062;34.834;2023-02-15T01:29:35;11.15;;;6.95;;
75937;SDS011;64615;32.062;34.834;2023-02-15T01:32:01;10.50;;;6.32;;
75937;SDS011;64615;32.062;34.834;2023-02-15T01:34:28;12.23;;;6.55;;
75937;SDS011;64615;32.062;34.834;2023-02-15T01:36:55;13.68;;;6.45;;
75937;SDS011;64615;32.062;34.834;2023-02-15T01:39:20;13.13;;;7.38;;
75937;SDS011;64615;32.062;34.834;2023-02-15T01:41:46;10.80;;;6.28;;
75937;SDS011;64615;32.062;34.834;2023-02-15T01:47:18;12.60;;;6.30;;
75937;SDS011;64615;32.062;34.834;2023-02-15T01:49:45;12.98;;;6.80;;
75937;SDS011;64615;32.062;34.834;2023-02-15T01:52:13;11.32;;;6.90;;
75937;SDS011;64615;32.062;34.834;2023-02-15T01:54:43;12.60;;;6.15;;
75937;SDS011;64615;32.062;34.834;2023-02-15T01:57:16;10.80;;;6.40;;
75937;SDS011;64615;32.062;34.834;2023-02-15T01:59:46;11.68;;;6.32;;
75937;SDS011;64615;32.062;34.834;2023-02-15T02:02:16;14.10;;;6.60;;
75937;SDS011;64615;32.062;34.834;2023-02-15T02:04:49;13.70;;;7.07;;
75937;SDS011;64615;32.062;34.834;2023-02-15T02:07:21;11.55;;;6.63;;
75937;SDS011;64615;32.062;34.834;2023-02-15T02:09:49;9.73;;;6.60;;
75937;SDS011;64615;32.062;34.834;2023-02-15T02:12:16;13.43;;;6.97;;
75937;SDS011;64615;32.062;34.834;2023-02-15T02:14:43;13.23;;;7.00;;
75937;SDS011;64615;32.062;34.834;2023-02-15T02:25:39;10.55;;;6.78;;
75937;SDS011;64615;32.062;34.834;2023-02-15T02:31:38;14.65;;;7.53;;
75937;SDS011;64615;32.062;34.834;2023-02-15T02:42:11;13.15;;;7.53;;
75937;SDS011;64615;32.062;34.834;2023-02-15T02:47:34;11.35;;;7.68;;
75937;SDS011;64615;32.062;34.834;2023-02-15T02:50:25;11.18;;;7.03;;
75937;SDS011;64615;32.062;34.834;2023-02-15T02:52:53;13.02;;;7.20;;
75937;SDS011;64615;32.062;34.834;2023-02-15T02:55:29;10.95;;;7.30;;
75937;SDS011;64615;32.062;34.834;2023-02-15T02:57:59;11.70;;;6.72;;
75937;SDS011;64615;32.062;34.834;2023-02-15T03:00:34;12.10;;;7.10;;
75937;SDS011;64615;32.062;34.834;2023-02-15T03:03:07;12.30;;;7.47;;
75937;SDS011;64615;32.062;34.834;2023-02-15T03:05:41;13.70;;;7.30;;
75937;SDS011;64615;32.062;34.834;2023-02-15T03:08:10;15.13;;;7.90;;
75937;SDS011;64615;32.062;34.834;2023-02-15T03:10:37;14.40;;;7.85;;
75937;SDS011;64615;32.062;34.834;2023-02-15T03:13:05;15.35;;;7.93;;
75937;SDS011;64615;32.062;34.834;2023-02-15T03:15:36;11.15;;;6.95;;
75937;SDS011;64615;32.062;34.834;2023-02-15T03:18:34;16.42;;;7.82;;
75937;SDS011;64615;32.062;34.834;2023-02-15T03:21:03;12.25;;;7.70;;
75937;SDS011;64615;32.062;34.834;2023-02-15T03:23:30;12.57;;;7.22;;
75937;SDS011;64615;32.062;34.834;2023-02-15T03:26:02;11.82;;;7.55;;
75937;SDS011;64615;32.062;34.834;2023-02-15T03:28:52;11.80;;;7.63;;
75937;SDS011;64615;32.062;34.834;2023-02-15T03:31:20;13.02;;;7.60;;
75937;SDS011;64615;32.062;34.834;2023-02-15T03:33:52;11.18;;;7.38;;
75937;SDS011;64615;32.062;34.834;2023-02-15T03:39:18;13.55;;;7.65;;
75937;SDS011;64615;32.062;34.834;2023-02-15T03:41:50;14.43;;;8.18;;
75937;SDS011;64615;32.062;34.834;2023-02-15T03:44:30;10.93;;;7.43;;
75937;SDS011;64615;32.062;34.834;2023-02-15T03:47:05;10.57;;;7.32;;
75937;SDS011;64615;32.062;34.834;2023-02-15T03:52:58;13.50;;;8.20;;
75937;SDS011;64615;32.062;34.834;2023-02-15T03:55:26;13.40;;;7.50;;
75937;SDS011;64615;32.062;34.834;2023-02-15T03:57:52;12.15;;;7.20;;
75937;SDS011;64615;32.062;34.834;2023-02-15T04:00:37;11.27;;;7.63;;
75937;SDS011;64615;32.062;34.834;2023-02-15T04:06:01;11.52;;;8.15;;
75937;SDS011;64615;32.062;34.834;2023-02-15T04:08:28;11.80;;;7.63;;
75937;SDS011;64615;32.062;34.834;2023-02-15T04:11:12;12.48;;;7.25;;
75937;SDS011;64615;32.062;34.834;2023-02-15T04:13:38;14.27;;;7.85;;
75937;SDS011;64615;32.062;34.834;2023-02-15T04:16:04;13.52;;;7.28;;
75937;SDS011;64615;32.062;34.834;2023-02-15T04:18:34;14.95;;;7.55;;
75937;SDS011;64615;32.062;34.834;2023-02-15T04:21:19;14.82;;;8.02;;
75937;SDS011;64615;32.062;34.834;2023-02-15T04:24:04;15.43;;;8.82;;
75937;SDS011;64615;32.062;34.834;2023-02-15T04:26:48;18.10;;;8.60;;
75937;SDS011;64615;32.062;34.834;2023-02-15T04:29:17;14.73;;;8.20;;
75937;SDS011;64615;32.062;34.834;2023-02-15T04:31:44;15.30;;;8.50;;
75937;SDS011;64615;32.062;34.834;2023-02-15T04:34:09;14.30;;;8.48;;
75937;SDS011;64615;32.062;34.834;2023-02-15T04:36:36;14.25;;;8.38;;
75937;SDS011;64615;32.062;34.834;2023-02-15T04:39:02;14.18;;;8.15;;
75937;SDS011;64615;32.062;34.834;2023-02-15T04:41:28;17.23;;;8.07;;
75937;SDS011;64615;32.062;34.834;2023-02-15T04:43:53;16.15;;;8.20;;
75937;SDS011;64615;32.062;34.834;2023-02-15T04:46:19;15.23;;;8.10;;
75937;SDS011;64615;32.062;34.834;2023-02-15T04:48:45;14.68;;;8.18;;
75937;SDS011;64615;32.062;34.834;2023-02-15T04:51:10;16.65;;;8.40;;
75937;SDS011;64615;32.062;34.834;2023-02-15T04:53:36;16.13;;;8.95;;
75937;SDS011;64615;32.062;34.834;2023-02-15T04:56:02;18.75;;;9.30;;
75937;SDS011;64615;32.062;34.834;2023-02-15T04:58:28;15.45;;;8.65;;
75937;SDS011;64615;32.062;34.834;2023-02-15T05:00:56;21.75;;;9.65;;
75937;SDS011;64615;32.062;34.834;2023-02-15T05:03:23;25.02;;;9.65;;
75937;SDS011;64615;32.062;34.834;2023-02-15T05:05:49;24.80;;;11.05;;
75937;SDS011;64615;32.062;34.834;2023-02-15T05:08:15;25.00;;;9.73;;
75937;SDS011;64615;32.062;34.834;2023-02-15T05:10:41;26.20;;;10.93;;
75937;SDS011;64615;32.062;34.834;2023-02-15T05:13:07;22.77;;;10.25;;
75937;SDS011;64615;32.062;34.834;2023-02-15T05:15:33;22.88;;;10.65;;
75937;SDS011;64615;32.062;34.834;2023-02-15T05:17:58;20.23;;;9.85;;
75937;SDS011;64615;32.062;34.834;2023-02-15T05:20:24;18.50;;;10.15;;
75937;SDS011;64615;32.062;34.834;2023-02-15T05:22:53;26.83;;;11.05;;
75937;SDS011;64615;32.062;34.834;2023-02-15T05:25:19;19.27;;;10.68;;
75937;SDS011;64615;32.062;34.834;2023-02-15T05:28:04;23.10;;;10.45;;
75937;SDS011;64615;32.062;34.834;2023-02-15T05:30:44;17.77;;;9.95;;
75937;SDS011;64615;32.062;34.834;2023-02-15T05:33:14;22.85;;;10.00;;
75937;SDS011;64615;32.062;34.834;2023-02-15T05:35:40;19.30;;;9.40;;
75937;SDS011;64615;32.062;34.834;2023-02-15T05:38:06;18.85;;;10.20;;
75937;SDS011;64615;32.062;34.834;2023-02-15T05:40:32;18.58;;;9.13;;
75937;SDS011;64615;32.062;34.834;2023-02-15T05:42:58;17.63;;;9.15;;
75937;SDS011;64615;32.062;34.834;2023-02-15T05:45:23;18.45;;;9.27;;
75937;SDS011;64615;32.062;34.834;2023-02-15T05:47:49;19.77;;;9.57;;
75937;SDS011;64615;32.062;34.834;2023-02-15T05:50:15;19.85;;;9.60;;
75937;SDS011;64615;32.062;34.834;2023-02-15T05:52:41;20.98;;;10.32;;
75937;SDS011;64615;32.062;34.834;2023-02-15T05:55:07;21.55;;;9.90;;
75937;SDS011;64615;32.062;34.834;2023-02-15T05:57:34;25.95;;;9.27;;
75937;SDS011;64615;32.062;34.834;2023-02-15T06:00:01;20.63;;;9.52;;
75937;SDS011;64615;32.062;34.834;2023-02-15T06:02:29;17.33;;;8.85;;
75937;SDS011;64615;32.062;34.834;2023-02-15T06:04:58;17.45;;;9.15;;
75937;SDS011;64615;32.062;34.834;2023-02-15T06:07:24;23.08;;;9.15;;
75937;SDS011;64615;32.062;34.834;2023-02-15T06:09:50;27.25;;;9.07;;
75937;SDS011;64615;32.062;34.834;2023-02-15T06:12:15;24.48;;;9.80;;
75937;SDS011;64615;32.062;34.834;2023-02-15T06:14:41;24.83;;;8.70;;
75937;SDS011;64615;32.062;34.834;2023-02-15T06:17:06;29.20;;;9.02;;
75937;SDS011;64615;32.062;34.834;2023-02-15T06:19:32;27.27;;;8.85;;
75937;SDS011;64615;32.062;34.834;2023-02-15T06:21:58;27.58;;;8.23;;
75937;SDS011;64615;32.062;34.834;2023-02-15T06:24:23;29.65;;;8.93;;
75937;SDS011;64615;32.062;34.834;2023-02-15T06:26:49;23.38;;;8.60;;
75937;SDS011;64615;32.062;34.834;2023-02-15T06:29:15;20.60;;;8.35;;
75937;SDS011;64615;32.062;34.834;2023-02-15T06:31:40;17.77;;;8.98;;
75937;SDS011;64615;32.062;34.834;2023-02-15T06:34:06;23.30;;;8.63;;
75937;SDS011;64615;32.062;34.834;2023-02-15T06:36:32;17.65;;;7.93;;
75937;SDS011;64615;32.062;34.834;2023-02-15T06:38:57;22.98;;;8.30;;
75937;SDS011;64615;32.062;34.834;2023-02-15T06:41:23;26.27;;;8.98;;
75937;SDS011;64615;32.062;34.834;2023-02-15T06:43:49;29.98;;;8.60;;
75937;SDS011;64615;32.062;34.834;2023-02-15T06:46:15;24.45;;;8.38;;
75937;SDS011;64615;32.062;34.834;2023-02-15T06:48:40;27.75;;;8.50;;
75937;SDS011;64615;32.062;34.834;2023-02-15T06:51:06;24.52;;;8.23;;
75937;SDS011;64615;32.062;34.834;2023-02-15T06:53:32;16.55;;;7.85;;
75937;SDS011;64615;32.062;34.834;2023-02-15T06:56:04;23.63;;;8.43;;
75937;SDS011;64615;32.062;34.834;2023-02-15T06:58:40;28.35;;;8.35;;
75937;SDS011;64615;32.062;34.834;2023-02-15T07:01:07;20.27;;;8.93;;
75937;SDS011;64615;32.062;34.834;2023-02-15T07:03:33;28.52;;;9.07;;
75937;SDS011;64615;32.062;34.834;2023-02-15T07:06:00;35.38;;;8.82;;
75937;SDS011;64615;32.062;34.834;2023-02-15T07:08:28;27.40;;;9.20;;
75937;SDS011;64615;32.062;34.834;2023-02-15T07:10:54;23.67;;;8.70;;
75937;SDS011;64615;32.062;34.834;2023-02-15T07:13:44;23.67;;;8.88;;
75937;SDS011;64615;32.062;34.834;2023-02-15T07:16:10;20.77;;;7.95;;
75937;SDS011;64615;32.062;34.834;2023-02-15T07:18:36;19.05;;;8.68;;
75937;SDS011;64615;32.062;34.834;2023-02-15T07:21:02;20.30;;;8.40;;
75937;SDS011;64615;32.062;34.834;2023-02-15T07:23:28;14.93;;;7.25;;
75937;SDS011;64615;32.062;34.834;2023-02-15T07:25:57;17.30;;;8.40;;
75937;SDS011;64615;32.062;34.834;2023-02-15T07:28:23;17.17;;;7.63;;
75937;SDS011;64615;32.062;34.834;2023-02-15T07:30:49;14.18;;;7.75;;
75937;SDS011;64615;32.062;34.834;2023-02-15T07:33:15;19.02;;;7.80;;
75937;SDS011;64615;32.062;34.834;2023-02-15T07:35:50;22.83;;;7.60;;
75937;SDS011;64615;32.062;34.834;2023-02-15T07:38:17;17.35;;;7.93;;
75937;SDS011;64615;32.062;34.834;2023-02-15T07:40:43;17.08;;;7.90;;
75937;SDS011;64615;32.062;34.834;2023-02-15T07:43:10;14.45;;;7.90;;
75937;SDS011;64615;32.062;34.834;2023-02-15T07:45:36;19.67;;;7.45;;
75937;SDS011;64615;32.062;34.834;2023-02-15T07:48:02;15.50;;;7.32;;
75937;SDS011;64615;32.062;34.834;2023-02-15T07:50:28;15.73;;;7.60;;
75937;SDS011;64615;32.062;34.834;2023-02-15T07:52:54;17.58;;;7.90;;
75937;SDS011;64615;32.062;34.834;2023-02-15T07:55:19;12.98;;;6.60;;
75937;SDS011;64615;32.062;34.834;2023-02-15T07:57:46;14.32;;;7.28;;
75937;SDS011;64615;32.062;34.834;2023-02-15T08:00:13;19.40;;;7.28;;
75937;SDS011;64615;32.062;34.834;2023-02-15T08:02:42;13.68;;;7.47;;
75937;SDS011;64615;32.062;34.834;2023-02-15T08:05:12;14.02;;;7.63;;
75937;SDS011;64615;32.062;34.834;2023-02-15T08:07:37;13.30;;;6.80;;
75937;SDS011;64615;32.062;34.834;2023-02-15T08:10:03;19.88;;;7.28;;
75937;SDS011;64615;32.062;34.834;2023-02-15T08:12:29;12.73;;;7.18;;
75937;SDS011;64615;32.062;34.834;2023-02-15T08:14:55;15.60;;;7.38;;
75937;SDS011;64615;32.062;34.834;2023-02-15T08:17:20;15.23;;;7.30;;
75937;SDS011;64615;32.062;34.834;2023-02-15T08:19:46;15.50;;;7.60;;
75937;SDS011;64615;32.062;34.834;2023-02-15T08:22:13;14.88;;;7.07;;
75937;SDS011;64615;32.062;34.834;2023-02-15T08:24:39;14.23;;;6.95;;
75937;SDS011;64615;32.062;34.834;2023-02-15T08:27:06;12.45;;;6.63;;
75937;SDS011;64615;32.062;34.834;2023-02-15T08:29:34;14.48;;;6.50;;
75937;SDS011;64615;32.062;34.834;2023-02-15T08:32:11;13.90;;;6.85;;
75937;SDS011;64615;32.062;34.834;2023-02-15T08:34:39;11.65;;;6.00;;
75937;SDS011;64615;32.062;34.834;2023-02-15T08:37:06;11.23;;;7.15;;
75937;SDS011;64615;32.062;34.834;2023-02-15T08:39:31;10.98;;;6.40;;
75937;SDS011;64615;32.062;34.834;2023-02-15T08:41:57;11.45;;;6.60;;
75937;SDS011;64615;32.062;34.834;2023-02-15T08:44:23;12.00;;;6.85;;
75937;SDS011;64615;32.062;34.834;2023-02-15T08:46:48;13.60;;;6.53;;
75937;SDS011;64615;32.062;34.834;2023-02-15T08:49:15;11.02;;;6.47;;
75937;SDS011;64615;32.062;34.834;2023-02-15T08:51:43;10.65;;;6.07;;
75937;SDS011;64615;32.062;34.834;2023-02-15T08:54:09;8.65;;;5.65;;
75937;SDS011;64615;32.062;34.834;2023-02-15T08:56:39;14.52;;;6.20;;
75937;SDS011;64615;32.062;34.834;2023-02-15T08:59:07;11.88;;;6.25;;
75937;SDS011;64615;32.062;34.834;2023-02-15T09:01:38;11.75;;;6.00;;
75937;SDS011;64615;32.062;34.834;2023-02-15T09:04:05;10.30;;;5.55;;
75937;SDS011;64615;32.062;34.834;2023-02-15T09:06:34;11.43;;;5.95;;
75937;SDS011;64615;32.062;34.834;2023-02-15T09:09:02;9.43;;;5.55;;
75937;SDS011;64615;32.062;34.834;2023-02-15T09:11:29;12.48;;;5.93;;
75937;SDS011;64615;32.062;34.834;2023-02-15T09:13:59;11.02;;;5.85;;
75937;SDS011;64615;32.062;34.834;2023-02-15T09:16:27;10.30;;;5.63;;
75937;SDS011;64615;32.062;34.834;2023-02-15T09:18:54;11.15;;;5.72;;
75937;SDS011;64615;32.062;34.834;2023-02-15T09:21:23;10.68;;;5.85;;
75937;SDS011;64615;32.062;34.834;2023-02-15T09:23:51;11.70;;;5.22;;
75937;SDS011;64615;32.062;34.834;2023-02-15T09:26:23;10.57;;;5.57;;
75937;SDS011;64615;32.062;34.834;2023-02-15T09:28:53;11.20;;;5.70;;
75937;SDS011;64615;32.062;34.834;2023-02-15T09:31:21;9.43;;;5.65;;
75937;SDS011;64615;32.062;34.834;2023-02-15T09:33:49;8.45;;;5.60;;
75937;SDS011;64615;32.062;34.834;2023-02-15T09:38:40;8.80;;;5.55;;
75937;SDS011;64615;32.062;34.834;2023-02-15T09:49:06;8.88;;;5.40;;
75937;SDS011;64615;32.062;34.834;2023-02-15T09:54:23;9.40;;;4.90;;
75937;SDS011;64615;32.062;34.834;2023-02-15T09:56:55;10.02;;;5.22;;
75937;SDS011;64615;32.062;34.834;2023-02-15T10:07:56;11.30;;;4.88;;
75937;SDS011;64615;32.062;34.834;2023-02-15T10:27:44;14.65;;;4.65;;
75937;SDS011;64615;32.062;34.834;2023-02-15T10:30:18;11.68;;;4.78;;
75937;SDS011;64615;32.062;34.834;2023-02-15T10:32:56;10.48;;;4.55;;
75937;SDS011;64615;32.062;34.834;2023-02-15T10:38:25;10.43;;;4.35;;
75937;SDS011;64615;32.062;34.834;2023-02-15T10:41:22;8.90;;;4.57;;
75937;SDS011;64615;32.062;34.834;2023-02-15T10:52:41;10.95;;;4.47;;
75937;SDS011;64615;32.062;34.834;2023-02-15T10:55:13;12.73;;;4.70;;
75937;SDS011;64615;32.062;34.834;2023-02-15T11:06:49;13.50;;;5.05;;
75937;SDS011;64615;32.062;34.834;2023-02-15T11:09:22;13.57;;;4.78;;
75937;SDS011;64615;32.062;34.834;2023-02-15T11:11:55;12.93;;;4.82;;
75937;SDS011;64615;32.062;34.834;2023-02-15T11:14:32;11.75;;;5.25;;
75937;SDS011;64615;32.062;34.834;2023-02-15T11:17:24;18.85;;;5.20;;
75937;SDS011;64615;32.062;34.834;2023-02-15T11:20:15;17.63;;;5.05;;
75937;SDS011;64615;32.062;34.834;2023-02-15T11:22:48;14.07;;;4.55;;
75937;SDS011;64615;32.062;34.834;2023-02-15T11:25:28;17.02;;;4.50;;
75937;SDS011;64615;32.062;34.834;2023-02-15T11:27:56;23.67;;;4.88;;
75937;SDS011;64615;32.062;34.834;2023-02-15T11:30:23;16.15;;;4.97;;
75937;SDS011;64615;32.062;34.834;2023-02-15T11:32:56;16.05;;;4.45;;
75937;SDS011;64615;32.062;34.834;2023-02-15T11:41:05;16.95;;;4.03;;
75937;SDS011;64615;32.062;34.834;2023-02-15T11:46:07;12.35;;;3.90;;
75937;SDS011;64615;32.062;34.834;2023-02-15T11:48:35;13.18;;;3.95;;
75937;SDS011;64615;32.062;34.834;2023-02-15T11:51:01;12.32;;;3.78;;
75937;SDS011;64615;32.062;34.834;2023-02-15T11:53:28;15.93;;;3.60;;
75937;SDS011;64615;32.062;34.834;2023-02-15T11:55:58;11.60;;;3.25;;
75937;SDS011;64615;32.062;34.834;2023-02-15T11:58:40;8.52;;;3.30;;
75937;SDS011;64615;32.062;34.834;2023-02-15T12:01:31;12.60;;;3.58;;
75937;SDS011;64615;32.062;34.834;2023-02-15T12:06:58;7.53;;;3.13;;
75937;SDS011;64615;32.062;34.834;2023-02-15T12:12:19;10.48;;;2.95;;
75937;SDS011;64615;32.062;34.834;2023-02-15T12:14:51;7.65;;;2.80;;
75937;SDS011;64615;32.062;34.834;2023-02-15T12:17:23;7.03;;;2.67;;
75937;SDS011;64615;32.062;34.834;2023-02-15T12:19:52;9.32;;;3.20;;
75937;SDS011;64615;32.062;34.834;2023-02-15T12:24:50;8.10;;;2.55;;
75937;SDS011;64615;32.062;34.834;2023-02-15T12:27:18;7.50;;;2.40;;
75937;SDS011;64615;32.062;34.834;2023-02-15T12:29:51;7.25;;;2.60;;
75937;SDS011;64615;32.062;34.834;2023-02-15T12:32:24;6.57;;;2.85;;
75937;SDS011;64615;32.062;34.834;2023-02-15T12:37:39;8.85;;;2.75;;
75937;SDS011;64615;32.062;34.834;2023-02-15T12:40:29;6.82;;;2.30;;
75937;SDS011;64615;32.062;34.834;2023-02-15T12:42:56;8.38;;;2.75;;
75937;SDS011;64615;32.062;34.834;2023-02-15T12:50:47;5.97;;;2.45;;
75937;SDS011;64615;32.062;34.834;2023-02-15T12:53:18;4.68;;;2.40;;
75937;SDS011;64615;32.062;34.834;2023-02-15T12:58:24;7.32;;;2.30;;
75937;SDS011;64615;32.062;34.834;2023-02-15T13:04:04;5.50;;;2.28;;
75937;SDS011;64615;32.062;34.834;2023-02-15T13:06:38;4.43;;;2.30;;
75937;SDS011;64615;32.062;34.834;2023-02-15T13:12:21;5.85;;;3.08;;
75937;SDS011;64615;32.062;34.834;2023-02-15T13:14:51;5.30;;;2.47;;
75937;SDS011;64615;32.062;34.834;2023-02-15T13:19:50;5.43;;;2.10;;
75937;SDS011;64615;32.062;34.834;2023-02-15T13:22:20;5.07;;;2.50;;
75937;SDS011;64615;32.062;34.834;2023-02-15T13:24:53;5.45;;;2.63;;
75937;SDS011;64615;32.062;34.834;2023-02-15T13:27:24;5.47;;;2.20;;
75937;SDS011;64615;32.062;34.834;2023-02-15T13:29:58;4.30;;;2.20;;
75937;SDS011;64615;32.062;34.834;2023-02-15T13:35:03;5.03;;;2.20;;
75937;SDS011;64615;32.062;34.834;2023-02-15T13:42:35;5.03;;;2.03;;
75937;SDS011;64615;32.062;34.834;2023-02-15T13:45:09;5.43;;;2.38;;
75937;SDS011;64615;32.062;34.834;2023-02-15T13:47:57;4.72;;;2.15;;
75937;SDS011;64615;32.062;34.834;2023-02-15T13:50:52;6.78;;;2.30;;
75937;SDS011;64615;32.062;34.834;2023-02-15T14:04:01;4.60;;;2.15;;
75937;SDS011;64615;32.062;34.834;2023-02-15T14:12:52;4.50;;;2.20;;
75937;SDS011;64615;32.062;34.834;2023-02-15T14:15:26;4.63;;;2.00;;
75937;SDS011;64615;32.062;34.834;2023-02-15T14:29:02;5.82;;;2.28;;
75937;SDS011;64615;32.062;34.834;2023-02-15T14:31:55;5.53;;;2.00;;
75937;SDS011;64615;32.062;34.834;2023-02-15T14:37:12;8.98;;;2.30;;
75937;SDS011;64615;32.062;34.834;2023-02-15T14:39:45;18.23;;;2.90;;
75937;SDS011;64615;32.062;34.834;2023-02-15T14:42:37;9.88;;;2.40;;
75937;SDS011;64615;32.062;34.834;2023-02-15T14:45:20;9.65;;;2.50;;
75937;SDS011;64615;32.062;34.834;2023-02-15T14:48:04;15.93;;;2.65;;
75937;SDS011;64615;32.062;34.834;2023-02-15T14:50:38;14.43;;;2.55;;
75937;SDS011;64615;32.062;34.834;2023-02-15T14:53:16;8.60;;;2.22;;
75937;SDS011;64615;32.062;34.834;2023-02-15T14:55:47;11.82;;;4.57;;
75937;SDS011;64615;32.062;34.834;2023-02-15T14:58:29;12.27;;;3.33;;
75937;SDS011;64615;32.062;34.834;2023-02-15T15:00:55;13.43;;;5.25;;
75937;SDS011;64615;32.062;34.834;2023-02-15T15:03:31;9.77;;;3.92;;
75937;SDS011;64615;32.062;34.834;2023-02-15T15:05:57;12.00;;;3.95;;
75937;SDS011;64615;32.062;34.834;2023-02-15T15:08:28;7.32;;;3.40;;
75937;SDS011;64615;32.062;34.834;2023-02-15T15:11:45;10.38;;;3.72;;
75937;SDS011;64615;32.062;34.834;2023-02-15T15:13:55;10.00;;;3.58;;
75937;SDS011;64615;32.062;34.834;2023-02-15T15:16:27;9.60;;;4.00;;
75937;SDS011;64615;32.062;34.834;2023-02-15T15:19:04;10.30;;;3.95;;
75937;SDS011;64615;32.062;34.834;2023-02-15T15:25:39;11.77;;;3.50;;
75937;SDS011;64615;32.062;34.834;2023-02-15T15:38:05;9.18;;;3.10;;
75937;SDS011;64615;32.062;34.834;2023-02-15T15:43:51;6.82;;;3.00;;
75937;SDS011;64615;32.062;34.834;2023-02-15T15:49:34;8.20;;;3.08;;
75937;SDS011;64615;32.062;34.834;2023-02-15T15:52:08;5.82;;;3.00;;
75937;SDS011;64615;32.062;34.834;2023-02-15T15:54:39;7.30;;;2.97;;
75937;SDS011;64615;32.062;34.834;2023-02-15T15:57:11;6.18;;;2.55;;
75937;SDS011;64615;32.062;34.834;2023-02-15T15:59:56;7.68;;;2.88;;
75937;SDS011;64615;32.062;34.834;2023-02-15T16:02:26;7.53;;;2.78;;
75937;SDS011;64615;32.062;34.834;2023-02-15T16:04:52;7.82;;;3.35;;
75937;SDS011;64615;32.062;34.834;2023-02-15T16:09:57;6.97;;;2.75;;
75937;SDS011;64615;32.062;34.834;2023-02-15T16:14:51;5.63;;;2.72;;
75937;SDS011;64615;32.062;34.834;2023-02-15T16:17:25;5.30;;;2.70;;
75937;SDS011;64615;32.062;34.834;2023-02-15T16:20:02;7.03;;;2.95;;
75937;SDS011;64615;32.062;34.834;2023-02-15T16:22:39;5.30;;;2.65;;
75937;SDS011;64615;32.062;34.834;2023-02-15T16:27:46;13.95;;;3.33;;
75937;SDS011;64615;32.062;34.834;2023-02-15T16:33:07;11.18;;;3.20;;
75937;SDS011;64615;32.062;34.834;2023-02-15T16:35:38;12.27;;;3.38;;
75937;SDS011;64615;32.062;34.834;2023-02-15T16:38:09;11.50;;;2.75;;
75937;SDS011;64615;32.062;34.834;2023-02-15T16:40:50;10.60;;;2.95;;
75937;SDS011;64615;32.062;34.834;2023-02-15T16:43:23;12.88;;;3.67;;
75937;SDS011;64615;32.062;34.834;2023-02-15T16:45:52;10.82;;;3.88;;
75937;SDS011;64615;32.062;34.834;2023-02-15T16:48:27;15.70;;;4.55;;
75937;SDS011;64615;32.062;34.834;2023-02-15T16:50:54;16.50;;;4.35;;
75937;SDS011;64615;32.062;34.834;2023-02-15T16:53:24;8.55;;;3.67;;
75937;SDS011;64615;32.062;34.834;2023-02-15T16:55:56;13.95;;;4.00;;
75937;SDS011;64615;32.062;34.834;2023-02-15T16:58:28;11.75;;;4.13;;
75937;SDS011;64615;32.062;34.834;2023-02-15T17:00:58;14.55;;;3.70;;
75937;SDS011;64615;32.062;34.834;2023-02-15T17:03:26;10.00;;;4.00;;
75937;SDS011;64615;32.062;34.834;2023-02-15T17:05:56;18.17;;;4.05;;
75937;SDS011;64615;32.062;34.834;2023-02-15T17:08:27;15.80;;;3.85;;
75937;SDS011;64615;32.062;34.834;2023-02-15T17:13:23;12.02;;;4.00;;
75937;SDS011;64615;32.062;34.834;2023-02-15T17:18:29;17.13;;;3.92;;
75937;SDS011;64615;32.062;34.834;2023-02-15T17:21:16;15.18;;;3.88;;
75937;SDS011;64615;32.062;34.834;2023-02-15T17:23:45;13.73;;;3.85;;
75937;SDS011;64615;32.062;34.834;2023-02-15T17:29:09;10.98;;;3.83;;
75937;SDS011;64615;32.062;34.834;2023-02-15T17:31:43;14.15;;;3.58;;
75937;SDS011;64615;32.062;34.834;2023-02-15T17:34:40;15.98;;;4.18;;
75937;SDS011;64615;32.062;34.834;2023-02-15T17:37:23;23.92;;;3.70;;
75937;SDS011;64615;32.062;34.834;2023-02-15T17:39:53;10.55;;;3.53;;
75937;SDS011;64615;32.062;34.834;2023-02-15T17:42:19;13.65;;;3.65;;
75937;SDS011;64615;32.062;34.834;2023-02-15T17:44:45;13.80;;;4.50;;
75937;SDS011;64615;32.062;34.834;2023-02-15T17:47:18;19.60;;;3.75;;
75937;SDS011;64615;32.062;34.834;2023-02-15T17:49:46;21.98;;;4.60;;
75937;SDS011;64615;32.062;34.834;2023-02-15T17:52:14;15.18;;;3.90;;
75937;SDS011;64615;32.062;34.834;2023-02-15T17:54:42;17.17;;;4.43;;
75937;SDS011;64615;32.062;34.834;2023-02-15T17:57:27;17.33;;;4.10;;
75937;SDS011;64615;32.062;34.834;2023-02-15T17:59:54;17.88;;;4.63;;
75937;SDS011;64615;32.062;34.834;2023-02-15T18:02:38;14.90;;;5.22;;
75937;SDS011;64615;32.062;34.834;2023-02-15T18:05:23;25.90;;;4.82;;
75937;SDS011;64615;32.062;34.834;2023-02-15T18:08:14;20.27;;;4.10;;
75937;SDS011;64615;32.062;34.834;2023-02-15T18:11:00;14.82;;;4.43;;